Airfield :
LOGIN :

Register | Disclaimer

   EN    FR    IT 

 










Legend :    VFR   Marginal VFR   IFR   Intensive IFR   Very Intensive IFR
Visi :
Ceiling :
>= 8 km
>= 3000ft
5 to 8 km
1000 to 3000 ft
1500m to 5 km
500 to 1000 ft
800 to 1500m
200 to 500 ft
< 800m
< 200 ft
Symbols :   Thunderstorms  Fog  Heavy snow  Heavy precipitations  Wind > 20 kt
SIGMETs :     Misc.  Thunderstorms  Icing  Turbulence  Mountain Waves  Volcanic Ashes






- Airport Elevation : 463 ft
- IATA code : SZY
- AIRPORT CLOSED.


EPSY - Szczytno

CURRENT METAR :
  • 011500Z 25009KT 210V280 9999 OVC045 05/M04 Q1013

EXPIRED METARs :
  • 011430Z 25009KT 9999 OVC045 05/M04 Q1014
  • 011400Z 24011KT 9999 OVC046 05/M04 Q1014
  • 011330Z 25012KT 9999 FEW036 OVC046 05/M03 Q1014
  • 011300Z 24014KT 210V280 9999 BKN037 05/M03 Q1014
  • 011230Z 25015KT 9999 BKN035 05/M03 Q1014

TAF TAF EPSY
Valid from the 01 at 15:00 until the 02 at 00:00 UTC


011430Z 0115/0124 25010KT 9999 BKN040
TEMPO 0115/0118 25015G25KT



MET'MAP, your aeronautical weather chart ! - Copyright ORBIFLY December 2007 - Disclaimer

ORBIFLY MET'MAP TEAM :

Programming & Development : Alexandra Zaïnal
Concept & original design : Baudouin d'Aumeries
Assistance for programming : Marc-Olivier Méhu
Technical & hardware support : Manuel Goepfert

Contact : metmap@orbifly.com




SOURCES & CREDITS :

   NOAA